Time;durP1;ratioP1;P1;durP2;ratioP2;P2;SDS_P1;SDS_P2;PMS_P1;PMS_P2;Temp;Humidity;BMP_temperature;BMP_pressure;BME280_temperature;BME280_humidity;BME280_pressure;Samples;Min_cycle;Max_cycle;Signal;HPM_P1;HPM_P2
2020/12/21 00:00:20;;;;;;;;;;;8.30;86.00;;;;;;5004823;28;19932;-45
2020/12/21 00:02:50;;;;;;;;;;;8.30;86.00;;;;;;5004441;28;19940;-46
2020/12/21 00:05:16;;;;;;;;;;;8.30;85.90;;;;;;5003232;28;19925;-46
2020/12/21 00:07:42;;;;;;;;;;;8.30;86.00;;;;;;5006817;28;19929;-44
2020/12/21 00:10:08;;;;;;;;;;;8.30;86.00;;;;;;5003745;28;19936;-45
2020/12/21 00:12:35;;;;;;;;;;;8.30;85.90;;;;;;5007284;28;20404;-46
2020/12/21 00:15:03;;;;;;;;;;;8.30;85.90;;;;;;5006360;28;19925;-46
2020/12/21 00:17:30;;;;;;;;;;;8.30;85.90;;;;;;5005219;28;19987;-45
2020/12/21 00:19:56;;;;;;;;;;;8.20;86.00;;;;;;5011116;28;19925;-43
2020/12/21 00:22:25;;;;;;;;;;;8.20;85.80;;;;;;5007379;28;20349;-45
2020/12/21 00:24:51;;;;;;;;;;;8.20;86.00;;;;;;5005113;28;19939;-42
2020/12/21 00:27:17;;;;;;;;;;;8.20;86.00;;;;;;5005273;28;19948;-46
2020/12/21 00:29:43;;;;;;;;;;;8.10;86.10;;;;;;5008312;28;20273;-44
2020/12/21 00:32:09;;;;;;;;;;;8.10;86.10;;;;;;5006850;28;20492;-45
2020/12/21 00:34:36;;;;;;;;;;;8.20;86.10;;;;;;5006979;28;20024;-44
2020/12/21 00:37:06;;;;;;;;;;;8.20;86.00;;;;;;5007275;28;20022;-45
2020/12/21 00:39:32;;;;;;;;;;;8.20;86.00;;;;;;5006931;28;19940;-45
2020/12/21 00:41:58;;;;;;;;;;;8.10;85.90;;;;;;5007764;28;19933;-45
2020/12/21 00:44:25;;;;;;;;;;;8.10;86.00;;;;;;5006525;28;19929;-44
2020/12/21 00:46:51;;;;;;;;;;;8.10;86.00;;;;;;5005274;28;19926;-44
2020/12/21 00:49:19;;;;;;;;;;;8.10;85.80;;;;;;5024168;28;19933;-45
2020/12/21 00:51:46;;;;;;;;;;;8.20;85.70;;;;;;5008044;28;20433;-43
2020/12/21 00:54:12;;;;;;;;;;;8.10;85.70;;;;;;5005493;28;20399;-45
2020/12/21 00:56:39;;;;;;;;;;;8.10;85.70;;;;;;5011750;28;19932;-45
2020/12/21 00:59:08;;;;;;;;;;;8.10;85.70;;;;;;5006544;28;20008;-45
2020/12/21 01:01:36;;;;;;;;;;;8.10;85.80;;;;;;5007617;28;20384;-45
2020/12/21 01:04:05;;;;;;;;;;;8.10;85.70;;;;;;5004614;28;19944;-46
2020/12/21 01:06:32;;;;;;;;;;;8.10;85.60;;;;;;5004978;28;20330;-45
2020/12/21 01:08:58;;;;;;;;;;;8.10;85.50;;;;;;5004777;28;20015;-44
2020/12/21 01:11:28;;;;;;;;;;;8.10;85.60;;;;;;5006088;28;19933;-44
2020/12/21 01:13:55;;;;;;;;;;;8.10;85.50;;;;;;5005716;28;19933;-45
2020/12/21 01:16:21;;;;;;;;;;;8.00;85.50;;;;;;5007457;28;19933;-46
2020/12/21 01:18:48;;;;;;;;;;;8.10;85.50;;;;;;5001000;28;19964;-44
2020/12/21 01:21:22;;;;;;;;;;;8.10;85.40;;;;;;5006742;28;19933;-46
2020/12/21 01:23:51;;;;;;;;;;;8.10;85.40;;;;;;5006047;28;19932;-44
2020/12/21 01:26:17;;;;;;;;;;;8.00;85.50;;;;;;5007191;28;19929;-44
2020/12/21 01:28:48;;;;;;;;;;;8.10;85.50;;;;;;5005521;28;19929;-42
2020/12/21 01:31:14;;;;;;;;;;;8.00;85.40;;;;;;5006805;28;19936;-43
2020/12/21 01:33:40;;;;;;;;;;;8.00;85.60;;;;;;5005621;28;20525;-44
2020/12/21 01:36:07;;;;;;;;;;;8.00;85.50;;;;;;5006421;28;20326;-44
2020/12/21 01:38:34;;;;;;;;;;;8.00;85.50;;;;;;5007563;28;19925;-45
2020/12/21 01:41:00;;;;;;;;;;;8.00;85.50;;;;;;5005845;28;19929;-46
2020/12/21 01:43:31;;;;;;;;;;;8.00;85.40;;;;;;5005879;28;20369;-46
2020/12/21 01:45:57;;;;;;;;;;;8.00;85.30;;;;;;4990140;28;19925;-43
2020/12/21 01:48:23;;;;;;;;;;;8.00;85.50;;;;;;5011107;28;19929;-44
2020/12/21 01:50:50;;;;;;;;;;;7.90;85.50;;;;;;5008035;28;19939;-45
2020/12/21 01:53:16;;;;;;;;;;;7.90;85.50;;;;;;5006785;28;19981;-46
2020/12/21 01:55:44;;;;;;;;;;;7.80;85.70;;;;;;5009162;28;19947;-46
2020/12/21 01:58:11;;;;;;;;;;;7.80;85.90;;;;;;5006126;28;20285;-43
2020/12/21 02:00:37;;;;;;;;;;;7.90;85.70;;;;;;5006312;28;19968;-43
2020/12/21 02:03:08;;;;;;;;;;;7.90;85.70;;;;;;5008323;28;19926;-44
2020/12/21 02:05:35;;;;;;;;;;;7.90;85.60;;;;;;5005965;28;20280;-44
2020/12/21 02:08:02;;;;;;;;;;;7.90;85.60;;;;;;5005647;28;19925;-43
2020/12/21 02:10:31;;;;;;;;;;;7.90;85.60;;;;;;5006773;28;20008;-44
2020/12/21 02:13:00;;;;;;;;;;;7.90;85.60;;;;;;5006744;28;19929;-44
2020/12/21 02:15:27;;;;;;;;;;;7.80;85.30;;;;;;5009437;28;19930;-46
2020/12/21 02:17:53;;;;;;;;;;;7.80;85.70;;;;;;5009670;28;20313;-44
2020/12/21 02:20:27;;;;;;;;;;;7.80;85.70;;;;;;5006431;28;19992;-45
2020/12/21 02:22:53;;;;;;;;;;;7.80;86.00;;;;;;5010420;28;19925;-45
2020/12/21 02:25:20;;;;;;;;;;;7.80;85.80;;;;;;5010722;28;20305;-46
2020/12/21 02:27:46;;;;;;;;;;;7.80;85.60;;;;;;5011793;28;19933;-46
2020/12/21 02:30:12;;;;;;;;;;;7.80;85.60;;;;;;5011086;28;19934;-44
2020/12/21 02:32:38;;;;;;;;;;;7.80;85.50;;;;;;5007786;28;19925;-44
2020/12/21 02:35:06;;;;;;;;;;;7.80;85.50;;;;;;5008821;28;19934;-45
2020/12/21 02:37:33;;;;;;;;;;;7.90;85.30;;;;;;5009026;28;19925;-44
2020/12/21 02:39:59;;;;;;;;;;;7.80;85.30;;;;;;5006059;28;20397;-44
2020/12/21 02:42:25;;;;;;;;;;;7.80;85.30;;;;;;5009388;28;19925;-46
2020/12/21 02:44:51;;;;;;;;;;;7.80;85.30;;;;;;5008852;28;19930;-44
2020/12/21 02:47:18;;;;;;;;;;;7.80;85.30;;;;;;5009745;28;19939;-45
2020/12/21 02:49:44;;;;;;;;;;;7.80;85.40;;;;;;5010931;28;19973;-46
2020/12/21 02:52:10;;;;;;;;;;;7.80;85.40;;;;;;5007898;28;19929;-45
2020/12/21 02:54:36;;;;;;;;;;;7.70;85.50;;;;;;5015452;28;19929;-43
2020/12/21 02:57:05;;;;;;;;;;;7.70;85.70;;;;;;5009160;28;19925;-43
2020/12/21 02:59:31;;;;;;;;;;;7.70;85.70;;;;;;5007866;28;19929;-46
2020/12/21 03:01:57;;;;;;;;;;;7.80;85.70;;;;;;4992964;28;19933;-44
2020/12/21 03:04:23;;;;;;;;;;;7.70;85.70;;;;;;5011069;28;19945;-43
2020/12/21 03:06:49;;;;;;;;;;;7.70;85.70;;;;;;5008314;28;19933;-43
2020/12/21 03:09:15;;;;;;;;;;;7.70;85.70;;;;;;5005240;28;19926;-45
2020/12/21 03:11:49;;;;;;;;;;;7.80;85.70;;;;;;5007988;28;19925;-46
2020/12/21 03:14:15;;;;;;;;;;;7.70;85.90;;;;;;5008787;28;20281;-46
2020/12/21 03:16:41;;;;;;;;;;;7.70;85.90;;;;;;5009329;28;20362;-41
2020/12/21 03:19:07;;;;;;;;;;;7.70;85.70;;;;;;5006782;28;19925;-46
2020/12/21 03:21:33;;;;;;;;;;;7.70;85.90;;;;;;5007202;28;20273;-45
2020/12/21 03:24:00;;;;;;;;;;;7.70;85.90;;;;;;5006694;28;20294;-44
2020/12/21 03:26:28;;;;;;;;;;;7.70;85.90;;;;;;5010028;28;20332;-43
2020/12/21 03:28:54;;;;;;;;;;;7.60;85.70;;;;;;5009685;28;19925;-45
2020/12/21 03:31:20;;;;;;;;;;;7.60;85.90;;;;;;5008104;28;20319;-43
2020/12/21 03:33:47;;;;;;;;;;;7.60;86.00;;;;;;5006090;28;19930;-44
2020/12/21 03:36:16;;;;;;;;;;;7.60;86.00;;;;;;5006533;28;19936;-46
2020/12/21 03:38:42;;;;;;;;;;;7.60;85.90;;;;;;5008294;28;20400;-45
2020/12/21 03:41:09;;;;;;;;;;;7.60;85.70;;;;;;5008136;28;20366;-43
2020/12/21 03:43:37;;;;;;;;;;;7.60;85.90;;;;;;5005012;28;19929;-43
2020/12/21 03:46:04;;;;;;;;;;;7.50;85.90;;;;;;5009982;28;19933;-46
2020/12/21 03:48:30;;;;;;;;;;;7.60;85.70;;;;;;5006347;28;19926;-42
2020/12/21 03:50:56;;;;;;;;;;;7.50;85.80;;;;;;5008186;28;20377;-43
2020/12/21 03:53:22;;;;;;;;;;;7.50;85.80;;;;;;5008474;28;19968;-45
2020/12/21 03:55:49;;;;;;;;;;;7.50;85.70;;;;;;5010542;28;19925;-43
2020/12/21 03:58:15;;;;;;;;;;;7.50;85.60;;;;;;5008110;28;19929;-43
2020/12/21 04:00:42;;;;;;;;;;;7.50;85.70;;;;;;5007465;28;19929;-45
2020/12/21 04:03:08;;;;;;;;;;;7.50;85.60;;;;;;5007832;28;19925;-44
2020/12/21 04:05:45;;;;;;;;;;;7.40;85.60;;;;;;5006827;28;19929;-44
2020/12/21 04:08:12;;;;;;;;;;;7.40;85.60;;;;;;5007916;28;19932;-45
2020/12/21 04:10:43;;;;;;;;;;;7.40;85.90;;;;;;5008710;28;20399;-46
2020/12/21 04:13:09;;;;;;;;;;;7.30;85.90;;;;;;5006489;28;20026;-44
2020/12/21 04:15:36;;;;;;;;;;;7.40;85.90;;;;;;5009439;28;19929;-43
2020/12/21 04:18:02;;;;;;;;;;;7.40;85.80;;;;;;5007524;28;20262;-43
2020/12/21 04:20:28;;;;;;;;;;;7.40;85.80;;;;;;5003060;28;19925;-45
2020/12/21 04:22:54;;;;;;;;;;;7.40;85.80;;;;;;5008715;28;20392;-46
2020/12/21 04:25:20;;;;;;;;;;;7.40;85.50;;;;;;5005275;28;19925;-45
2020/12/21 04:27:47;;;;;;;;;;;7.40;85.40;;;;;;5006813;28;19932;-43
2020/12/21 04:30:13;;;;;;;;;;;7.40;85.30;;;;;;5005360;28;19929;-44
2020/12/21 04:32:43;;;;;;;;;;;7.40;85.30;;;;;;5008118;28;19987;-45
2020/12/21 04:35:09;;;;;;;;;;;7.40;85.40;;;;;;5006950;28;19956;-45
2020/12/21 04:37:35;;;;;;;;;;;7.40;85.40;;;;;;5006939;28;20673;-46
2020/12/21 04:40:04;;;;;;;;;;;7.40;85.30;;;;;;5004956;28;20392;-45
2020/12/21 04:42:30;;;;;;;;;;;7.40;85.30;;;;;;5007683;28;19925;-42
2020/12/21 04:44:59;;;;;;;;;;;7.40;85.30;;;;;;5007189;28;20314;-43
2020/12/21 04:47:25;;;;;;;;;;;7.50;85.20;;;;;;5006569;28;19937;-46
2020/12/21 04:49:55;;;;;;;;;;;7.40;85.10;;;;;;5004058;28;19936;-44
2020/12/21 04:52:28;;;;;;;;;;;7.50;85.00;;;;;;5006178;28;19925;-44
2020/12/21 04:54:55;;;;;;;;;;;7.40;84.80;;;;;;5007611;28;19925;-45
2020/12/21 04:57:21;;;;;;;;;;;7.40;85.20;;;;;;5005863;28;20476;-44
2020/12/21 04:59:48;;;;;;;;;;;7.40;85.30;;;;;;5007850;28;19925;-42
2020/12/21 05:02:14;;;;;;;;;;;7.40;85.30;;;;;;5009110;28;19933;-45
2020/12/21 05:04:50;;;;;;;;;;;7.30;85.40;;;;;;5003289;28;20389;-44
2020/12/21 05:07:16;;;;;;;;;;;7.30;85.40;;;;;;5006024;28;20345;-46
2020/12/21 05:09:45;;;;;;;;;;;7.30;85.30;;;;;;5002968;28;19968;-44
2020/12/21 05:12:11;;;;;;;;;;;7.30;85.30;;;;;;5006014;28;19963;-45
2020/12/21 05:14:38;;;;;;;;;;;7.30;85.20;;;;;;5008781;28;19929;-45
2020/12/21 05:17:14;;;;;;;;;;;7.30;85.10;;;;;;5006623;28;20282;-45
2020/12/21 05:19:42;;;;;;;;;;;7.30;85.20;;;;;;5007332;28;19930;-45
2020/12/21 05:22:09;;;;;;;;;;;7.30;85.20;;;;;;5007152;28;19940;-45
2020/12/21 05:24:40;;;;;;;;;;;7.30;85.20;;;;;;5006310;28;19988;-44
2020/12/21 05:27:10;;;;;;;;;;;7.30;85.10;;;;;;4989827;28;19935;-45
2020/12/21 05:29:44;;;;;;;;;;;7.30;84.80;;;;;;5004603;28;19987;-44
2020/12/21 05:32:18;;;;;;;;;;;7.30;84.60;;;;;;5007608;28;19925;-45
2020/12/21 05:34:45;;;;;;;;;;;7.30;84.60;;;;;;5007647;28;19925;-45
2020/12/21 05:37:14;;;;;;;;;;;7.30;84.50;;;;;;5011728;28;19933;-46
2020/12/21 05:39:59;;;;;;;;;;;7.20;84.60;;;;;;5006595;28;19929;-45
2020/12/21 05:42:25;;;;;;;;;;;7.20;84.80;;;;;;5008936;28;19925;-45
2020/12/21 05:44:54;;;;;;;;;;;7.20;84.60;;;;;;5007674;28;20312;-45
2020/12/21 05:47:21;;;;;;;;;;;7.10;84.90;;;;;;5011837;28;19933;-44
2020/12/21 05:49:51;;;;;;;;;;;7.10;85.10;;;;;;5009953;28;19925;-44
2020/12/21 05:52:26;;;;;;;;;;;7.10;85.50;;;;;;5009014;28;19976;-45
2020/12/21 05:54:53;;;;;;;;;;;7.10;85.40;;;;;;5010031;28;20304;-43
2020/12/21 05:57:20;;;;;;;;;;;7.20;85.30;;;;;;5010636;28;19925;-46
2020/12/21 05:59:47;;;;;;;;;;;7.20;85.30;;;;;;5011822;28;19929;-46
2020/12/21 06:02:16;;;;;;;;;;;7.20;85.20;;;;;;5007227;28;20206;-44
2020/12/21 06:04:46;;;;;;;;;;;7.20;85.10;;;;;;5004244;28;19933;-46
2020/12/21 06:07:13;;;;;;;;;;;7.20;85.20;;;;;;5007972;28;20380;-46
2020/12/21 06:09:45;;;;;;;;;;;7.20;85.30;;;;;;5005073;28;19940;-46
2020/12/21 06:12:11;;;;;;;;;;;7.20;85.30;;;;;;5005899;28;20428;-46
2020/12/21 06:14:39;;;;;;;;;;;7.20;85.30;;;;;;5005999;28;20694;-42
2020/12/21 06:17:12;;;;;;;;;;;7.20;85.30;;;;;;5007628;28;19925;-45
2020/12/21 06:19:41;;;;;;;;;;;7.20;85.40;;;;;;5005126;28;19980;-45
2020/12/21 06:22:07;;;;;;;;;;;7.30;85.50;;;;;;5002662;28;19933;-46
2020/12/21 06:24:40;;;;;;;;;;;7.30;85.50;;;;;;5001417;28;20186;-43
2020/12/21 06:27:22;;;;;;;;;;;7.30;85.50;;;;;;5007311;28;19936;-45
2020/12/21 06:29:59;;;;;;;;;;;7.30;85.60;;;;;;5004295;28;19929;-46
2020/12/21 06:32:29;;;;;;;;;;;7.30;85.70;;;;;;5008149;28;20824;-46
2020/12/21 06:34:55;;;;;;;;;;;7.30;85.60;;;;;;5005167;28;19943;-45
2020/12/21 06:37:21;;;;;;;;;;;7.30;85.80;;;;;;5001417;28;19933;-46
2020/12/21 06:40:06;;;;;;;;;;;7.30;85.70;;;;;;5012964;28;19925;-44
2020/12/21 06:42:33;;;;;;;;;;;7.30;85.80;;;;;;5004031;28;19940;-46
2020/12/21 06:45:10;;;;;;;;;;;7.30;85.70;;;;;;5006206;28;19929;-43
2020/12/21 06:47:37;;;;;;;;;;;7.30;85.70;;;;;;5004890;28;19933;-46
2020/12/21 06:50:04;;;;;;;;;;;7.30;85.70;;;;;;5007864;28;19929;-46
2020/12/21 06:52:30;;;;;;;;;;;7.30;85.70;;;;;;5009703;28;19937;-45
2020/12/21 06:54:56;;;;;;;;;;;7.30;85.80;;;;;;5010870;28;19931;-46
2020/12/21 06:57:23;;;;;;;;;;;7.30;85.80;;;;;;5008117;28;19932;-45
2020/12/21 06:59:58;;;;;;;;;;;7.30;85.70;;;;;;5008496;28;19926;-45
2020/12/21 07:02:27;;;;;;;;;;;7.30;85.60;;;;;;5010636;28;20063;-45
2020/12/21 07:04:53;;;;;;;;;;;7.30;85.60;;;;;;5010289;28;19933;-44
2020/12/21 07:07:38;;;;;;;;;;;7.30;85.60;;;;;;5010956;28;19975;-44
2020/12/21 07:10:11;;;;;;;;;;;7.30;85.60;;;;;;5010165;28;19939;-46
2020/12/21 07:12:40;;;;;;;;;;;7.30;85.60;;;;;;5008467;28;20245;-44
2020/12/21 07:15:07;;;;;;;;;;;7.30;85.60;;;;;;5010951;28;20341;-46
2020/12/21 07:17:36;;;;;;;;;;;7.30;85.60;;;;;;5009306;28;19944;-46
2020/12/21 07:20:04;;;;;;;;;;;7.30;85.60;;;;;;5011745;28;20024;-46
2020/12/21 07:22:30;;;;;;;;;;;7.30;85.50;;;;;;5008606;28;19925;-45
2020/12/21 07:24:57;;;;;;;;;;;7.30;85.40;;;;;;5008281;28;19932;-45
2020/12/21 07:27:24;;;;;;;;;;;7.30;85.40;;;;;;5008303;28;20376;-45
2020/12/21 07:29:50;;;;;;;;;;;7.30;85.40;;;;;;5008019;28;19939;-46
2020/12/21 07:32:16;;;;;;;;;;;7.30;85.30;;;;;;5009850;28;19926;-46
2020/12/21 07:34:42;;;;;;;;;;;7.40;85.30;;;;;;5005207;28;19984;-45
2020/12/21 07:37:09;;;;;;;;;;;7.30;85.30;;;;;;5006268;28;19933;-46
2020/12/21 07:39:36;;;;;;;;;;;7.40;85.30;;;;;;5022133;28;19933;-46
2020/12/21 07:42:11;;;;;;;;;;;7.40;85.20;;;;;;5006425;28;19929;-45
2020/12/21 07:44:44;;;;;;;;;;;7.40;85.30;;;;;;5005823;28;19998;-46
2020/12/21 07:47:23;;;;;;;;;;;7.40;85.40;;;;;;5008041;28;19932;-44
2020/12/21 07:49:49;;;;;;;;;;;7.40;85.40;;;;;;5003881;28;19925;-46
2020/12/21 07:52:15;;;;;;;;;;;7.40;85.30;;;;;;5011782;28;19940;-44
2020/12/21 07:54:43;;;;;;;;;;;7.40;85.30;;;;;;5004933;28;19936;-45
2020/12/21 07:57:11;;;;;;;;;;;7.40;85.30;;;;;;5010026;28;19933;-45
2020/12/21 07:59:37;;;;;;;;;;;7.40;85.30;;;;;;5003511;28;20289;-44
2020/12/21 08:02:05;;;;;;;;;;;7.40;85.30;;;;;;5021668;28;19925;-44
2020/12/21 08:04:31;;;;;;;;;;;7.40;85.50;;;;;;5005087;28;20396;-45
2020/12/21 08:07:04;;;;;;;;;;;7.40;85.50;;;;;;5007850;28;19929;-46
2020/12/21 08:09:30;;;;;;;;;;;7.40;85.50;;;;;;5007631;28;20634;-45
2020/12/21 08:12:06;;;;;;;;;;;7.40;85.50;;;;;;5007264;28;19933;-44
2020/12/21 08:14:32;;;;;;;;;;;7.40;85.40;;;;;;4956643;28;1423180;-45
2020/12/21 08:17:07;;;;;;;;;;;7.50;85.30;;;;;;5005706;28;20408;-44
2020/12/21 08:19:33;;;;;;;;;;;7.50;85.20;;;;;;5005758;28;20427;-45
2020/12/21 08:22:03;;;;;;;;;;;7.50;85.30;;;;;;5005142;28;19994;-45
2020/12/21 08:24:29;;;;;;;;;;;7.50;85.40;;;;;;5008370;28;19933;-45
2020/12/21 08:27:01;;;;;;;;;;;7.50;85.40;;;;;;5006905;28;22555;-42
2020/12/21 08:29:28;;;;;;;;;;;7.40;85.40;;;;;;5007083;28;19935;-44
2020/12/21 08:31:54;;;;;;;;;;;7.40;85.50;;;;;;5010514;28;19948;-45
2020/12/21 08:34:23;;;;;;;;;;;7.40;85.60;;;;;;5006888;28;20376;-44
2020/12/21 08:36:50;;;;;;;;;;;7.40;85.40;;;;;;5008129;28;20880;-42
2020/12/21 08:39:18;;;;;;;;;;;7.40;85.30;;;;;;5007553;28;20460;-47
2020/12/21 08:41:46;;;;;;;;;;;7.40;85.40;;;;;;5007437;28;19931;-45
2020/12/21 08:44:13;;;;;;;;;;;7.40;85.40;;;;;;5010256;28;20361;-43
2020/12/21 08:46:44;;;;;;;;;;;7.50;85.40;;;;;;5010224;28;19933;-46
2020/12/21 08:49:11;;;;;;;;;;;7.50;85.40;;;;;;5008356;28;19952;-46
2020/12/21 08:51:37;;;;;;;;;;;7.50;85.30;;;;;;5007967;28;24754;-45
2020/12/21 08:54:04;;;;;;;;;;;7.50;85.50;;;;;;5008535;28;20012;-46
2020/12/21 08:56:30;;;;;;;;;;;7.60;85.30;;;;;;5010306;28;19933;-46
2020/12/21 08:58:56;;;;;;;;;;;7.60;85.30;;;;;;5005293;28;19945;-47
2020/12/21 09:01:23;;;;;;;;;;;7.60;85.40;;;;;;5010150;28;19930;-46
2020/12/21 09:03:49;;;;;;;;;;;7.60;85.40;;;;;;5011941;28;20277;-43
2020/12/21 09:06:22;;;;;;;;;;;7.70;85.40;;;;;;5009277;28;19925;-46
2020/12/21 09:08:54;;;;;;;;;;;7.70;85.30;;;;;;5007115;28;20044;-43
2020/12/21 09:11:21;;;;;;;;;;;7.70;85.30;;;;;;5007410;28;19940;-45
2020/12/21 09:13:47;;;;;;;;;;;7.80;85.40;;;;;;5005216;28;19930;-46
2020/12/21 09:16:20;;;;;;;;;;;7.80;85.30;;;;;;5008514;28;19933;-46
2020/12/21 09:18:48;;;;;;;;;;;7.80;85.20;;;;;;5006195;28;19925;-45
2020/12/21 09:21:23;;;;;;;;;;;7.80;85.30;;;;;;5006496;28;19932;-46
2020/12/21 09:23:49;;;;;;;;;;;7.80;85.30;;;;;;5005818;28;19925;-46
2020/12/21 09:26:16;;;;;;;;;;;7.80;85.30;;;;;;5006004;28;19930;-46
2020/12/21 09:28:42;;;;;;;;;;;7.90;85.30;;;;;;5016711;28;19940;-43
2020/12/21 09:31:11;;;;;;;;;;;7.90;85.30;;;;;;5005726;28;19932;-46
2020/12/21 09:33:42;;;;;;;;;;;7.90;85.40;;;;;;5006092;28;19937;-44
2020/12/21 09:36:08;;;;;;;;;;;7.90;85.40;;;;;;5004719;28;19940;-43
2020/12/21 09:38:34;;;;;;;;;;;7.90;85.40;;;;;;5005455;28;20016;-42
2020/12/21 09:41:01;;;;;;;;;;;8.00;85.40;;;;;;5007157;28;19932;-44
2020/12/21 09:43:29;;;;;;;;;;;8.00;85.50;;;;;;5002551;28;19929;-46
2020/12/21 09:45:55;;;;;;;;;;;8.00;85.50;;;;;;5000275;28;20313;-45
2020/12/21 09:48:21;;;;;;;;;;;8.00;85.40;;;;;;5004105;28;20484;-41
2020/12/21 09:50:48;;;;;;;;;;;8.10;85.50;;;;;;5008370;28;19929;-46
2020/12/21 09:53:15;;;;;;;;;;;8.10;85.40;;;;;;5003364;28;19935;-45
2020/12/21 09:55:41;;;;;;;;;;;8.10;85.40;;;;;;5005862;28;20373;-45
2020/12/21 09:58:07;;;;;;;;;;;8.20;85.50;;;;;;5005779;28;19925;-46
2020/12/21 10:00:34;;;;;;;;;;;8.20;85.40;;;;;;5006869;28;20329;-46
2020/12/21 10:03:00;;;;;;;;;;;8.20;85.50;;;;;;5009601;28;20020;-44
2020/12/21 10:05:26;;;;;;;;;;;8.20;85.40;;;;;;5005146;28;20052;-46
2020/12/21 10:07:53;;;;;;;;;;;8.30;85.30;;;;;;5006637;28;19933;-46
2020/12/21 10:10:19;;;;;;;;;;;8.30;85.30;;;;;;5012019;28;20293;-45
2020/12/21 10:12:45;;;;;;;;;;;8.30;85.50;;;;;;5004558;28;19933;-45
2020/12/21 10:15:11;;;;;;;;;;;8.30;85.50;;;;;;5003751;28;20520;-43
2020/12/21 10:17:37;;;;;;;;;;;8.30;85.60;;;;;;5007298;28;19968;-44
2020/12/21 10:20:04;;;;;;;;;;;8.40;85.60;;;;;;5004828;28;20384;-46
2020/12/21 10:22:31;;;;;;;;;;;8.40;85.60;;;;;;5005170;28;19961;-46
2020/12/21 10:25:00;;;;;;;;;;;8.40;85.70;;;;;;5011890;28;19925;-44
2020/12/21 10:27:28;;;;;;;;;;;8.50;85.70;;;;;;5006541;28;19929;-45
2020/12/21 10:29:54;;;;;;;;;;;8.50;85.70;;;;;;5004883;28;20015;-45
2020/12/21 10:32:20;;;;;;;;;;;8.60;85.70;;;;;;5006384;28;19968;-44
2020/12/21 10:34:47;;;;;;;;;;;8.60;85.60;;;;;;5007551;28;19973;-45
2020/12/21 10:37:13;;;;;;;;;;;8.60;85.60;;;;;;5004325;28;20379;-45
2020/12/21 10:39:49;;;;;;;;;;;8.60;85.70;;;;;;5008426;28;19926;-46
2020/12/21 10:42:16;;;;;;;;;;;8.70;85.50;;;;;;5006513;28;20612;-45
2020/12/21 10:44:42;;;;;;;;;;;8.70;85.40;;;;;;5006495;28;19925;-43
2020/12/21 10:47:08;;;;;;;;;;;8.70;85.40;;;;;;5015591;28;20015;-44
2020/12/21 10:49:37;;;;;;;;;;;8.80;85.40;;;;;;5022640;28;20571;-44
2020/12/21 10:52:04;;;;;;;;;;;8.80;85.50;;;;;;5005867;28;19925;-46
2020/12/21 10:54:30;;;;;;;;;;;8.80;85.70;;;;;;5007799;28;19948;-45
2020/12/21 10:56:56;;;;;;;;;;;8.90;85.70;;;;;;5010746;28;19935;-45
2020/12/21 10:59:22;;;;;;;;;;;8.90;85.70;;;;;;5007192;28;19925;-46
2020/12/21 11:01:48;;;;;;;;;;;8.90;85.70;;;;;;5007546;28;21890;-45
2020/12/21 11:04:14;;;;;;;;;;;9.00;85.80;;;;;;5008566;28;19929;-44
2020/12/21 11:06:41;;;;;;;;;;;9.00;85.80;;;;;;5005099;28;19965;-45
2020/12/21 11:09:07;;;;;;;;;;;9.00;85.80;;;;;;5007474;28;19970;-46
2020/12/21 11:11:34;;;;;;;;;;;9.00;85.80;;;;;;5003287;28;19936;-46
2020/12/21 11:14:01;;;;;;;;;;;9.00;85.80;;;;;;5008022;28;19925;-46
2020/12/21 11:16:29;;;;;;;;;;;9.10;85.90;;;;;;5003389;28;19930;-45
2020/12/21 11:18:56;;;;;;;;;;;9.10;86.10;;;;;;5003885;28;19937;-46
2020/12/21 11:21:22;;;;;;;;;;;9.10;86.10;;;;;;4998842;28;19931;-44
2020/12/21 11:23:57;;;;;;;;;;;9.20;86.10;;;;;;5001938;28;22175;-45
2020/12/21 11:26:24;;;;;;;;;;;9.20;86.20;;;;;;5006652;28;19955;-46
2020/12/21 11:28:50;;;;;;;;;;;9.30;86.20;;;;;;5007323;28;19969;-45
2020/12/21 11:31:19;;;;;;;;;;;9.30;85.90;;;;;;5006376;28;19929;-45
2020/12/21 11:33:45;;;;;;;;;;;9.30;85.90;;;;;;5005688;28;19944;-46
2020/12/21 11:36:11;;;;;;;;;;;9.30;85.90;;;;;;5006479;28;19933;-44
2020/12/21 11:38:37;;;;;;;;;;;9.30;85.70;;;;;;5007743;28;20285;-46
2020/12/21 11:41:05;;;;;;;;;;;9.40;85.70;;;;;;5005441;28;20487;-46
2020/12/21 11:43:31;;;;;;;;;;;9.40;85.60;;;;;;5006821;28;20266;-45
2020/12/21 11:45:58;;;;;;;;;;;9.40;85.50;;;;;;5008403;28;19929;-44
2020/12/21 11:48:27;;;;;;;;;;;9.40;85.50;;;;;;5006068;28;19983;-45
2020/12/21 11:50:53;;;;;;;;;;;9.40;85.30;;;;;;5005200;28;19933;-46
2020/12/21 11:53:20;;;;;;;;;;;9.40;85.60;;;;;;5007388;28;19929;-42
2020/12/21 11:55:46;;;;;;;;;;;9.40;86.00;;;;;;5009209;28;19925;-44
2020/12/21 11:58:12;;;;;;;;;;;9.30;86.40;;;;;;5006416;28;19925;-43
2020/12/21 12:00:41;;;;;;;;;;;9.40;86.40;;;;;;5016438;28;19931;-44
2020/12/21 12:03:07;;;;;;;;;;;9.40;86.60;;;;;;5006896;28;19973;-44
2020/12/21 12:05:33;;;;;;;;;;;9.40;86.50;;;;;;5002945;28;19939;-45
2020/12/21 12:08:00;;;;;;;;;;;9.50;85.90;;;;;;5013167;28;19929;-46
2020/12/21 12:10:42;;;;;;;;;;;9.50;85.60;;;;;;5007811;28;19929;-45
2020/12/21 12:13:08;;;;;;;;;;;9.50;85.80;;;;;;5006307;28;19932;-46
2020/12/21 12:15:34;;;;;;;;;;;9.50;85.80;;;;;;5005227;28;19934;-46
2020/12/21 12:18:00;;;;;;;;;;;9.50;85.90;;;;;;5012705;28;20028;-46
2020/12/21 12:20:27;;;;;;;;;;;9.50;85.80;;;;;;5009101;28;19925;-46
2020/12/21 12:22:54;;;;;;;;;;;9.50;85.40;;;;;;5021528;28;20409;-46
2020/12/21 12:25:22;;;;;;;;;;;9.50;85.20;;;;;;5006232;28;19936;-43
2020/12/21 12:27:48;;;;;;;;;;;9.60;85.10;;;;;;5013276;28;19932;-43
2020/12/21 12:30:18;;;;;;;;;;;9.60;85.50;;;;;;5007240;28;19933;-44
2020/12/21 12:32:44;;;;;;;;;;;9.60;85.20;;;;;;5007524;28;19936;-45
2020/12/21 12:35:10;;;;;;;;;;;9.60;85.00;;;;;;5004484;28;20415;-46
2020/12/21 12:37:36;;;;;;;;;;;9.60;85.10;;;;;;5023180;28;19945;-44
2020/12/21 12:40:03;;;;;;;;;;;9.60;85.20;;;;;;5010515;28;19929;-46
2020/12/21 12:42:29;;;;;;;;;;;9.60;85.10;;;;;;4977153;28;20585;-44
2020/12/21 12:44:55;;;;;;;;;;;9.60;84.70;;;;;;5008789;28;19925;-43
2020/12/21 12:47:21;;;;;;;;;;;9.60;85.00;;;;;;5005721;28;19940;-44
2020/12/21 12:49:48;;;;;;;;;;;9.60;85.10;;;;;;5001348;28;19992;-44
2020/12/21 12:52:14;;;;;;;;;;;9.60;85.00;;;;;;4988653;28;19933;-44
2020/12/21 12:54:40;;;;;;;;;;;9.70;84.50;;;;;;5002470;28;19961;-44
2020/12/21 12:57:08;;;;;;;;;;;9.70;84.70;;;;;;5009861;28;19934;-44
2020/12/21 12:59:38;;;;;;;;;;;9.70;84.60;;;;;;5005385;28;19998;-44
2020/12/21 13:02:08;;;;;;;;;;;9.70;84.60;;;;;;5005127;28;20427;-44
2020/12/21 13:04:40;;;;;;;;;;;9.70;84.60;;;;;;5007848;28;19925;-43
2020/12/21 13:07:06;;;;;;;;;;;9.70;84.60;;;;;;5005704;28;20274;-44
2020/12/21 13:09:35;;;;;;;;;;;9.70;84.60;;;;;;5008696;28;20008;-43
2020/12/21 13:12:01;;;;;;;;;;;9.70;84.80;;;;;;5007195;28;19926;-43
2020/12/21 13:14:28;;;;;;;;;;;9.70;84.70;;;;;;5005558;28;19983;-44
2020/12/21 13:16:54;;;;;;;;;;;9.80;84.50;;;;;;5007286;28;19934;-43
2020/12/21 13:19:23;;;;;;;;;;;9.80;84.60;;;;;;5009749;28;20008;-44
2020/12/21 13:21:51;;;;;;;;;;;9.80;84.30;;;;;;5006695;28;20278;-44
2020/12/21 13:24:17;;;;;;;;;;;9.80;84.00;;;;;;5003360;28;19926;-44
2020/12/21 13:26:45;;;;;;;;;;;9.80;83.90;;;;;;5011744;28;19939;-43
2020/12/21 13:29:12;;;;;;;;;;;9.80;84.00;;;;;;5002335;28;19932;-44
2020/12/21 13:31:38;;;;;;;;;;;9.70;84.00;;;;;;5006929;28;19929;-43
2020/12/21 13:34:04;;;;;;;;;;;9.80;83.90;;;;;;5007114;28;19929;-43
2020/12/21 13:36:30;;;;;;;;;;;9.80;84.00;;;;;;5005969;28;20384;-43
2020/12/21 13:38:56;;;;;;;;;;;9.80;84.00;;;;;;5004157;28;19926;-43
2020/12/21 13:41:40;;;;;;;;;;;9.70;84.10;;;;;;5004761;28;19933;-43
2020/12/21 13:44:07;;;;;;;;;;;9.70;84.40;;;;;;5011249;28;19934;-42
2020/12/21 13:46:33;;;;;;;;;;;9.70;84.40;;;;;;5005619;28;19976;-43
2020/12/21 13:48:59;;;;;;;;;;;9.70;84.50;;;;;;5007696;28;20393;-43
2020/12/21 13:51:26;;;;;;;;;;;9.70;84.60;;;;;;5007229;28;20437;-43
2020/12/21 13:53:53;;;;;;;;;;;9.70;84.60;;;;;;5002889;28;19972;-43
2020/12/21 13:56:19;;;;;;;;;;;9.70;84.50;;;;;;5004266;28;19925;-43
2020/12/21 13:58:45;;;;;;;;;;;9.70;84.70;;;;;;5005096;28;20453;-43
2020/12/21 14:01:14;;;;;;;;;;;9.70;84.80;;;;;;5007707;28;19933;-43
2020/12/21 14:03:40;;;;;;;;;;;9.70;84.60;;;;;;5003382;28;20373;-43
2020/12/21 14:06:06;;;;;;;;;;;9.70;84.60;;;;;;5005179;28;19925;-43
2020/12/21 14:08:32;;;;;;;;;;;9.70;84.50;;;;;;5006754;28;19929;-43
2020/12/21 14:10:58;;;;;;;;;;;9.70;84.60;;;;;;5009404;28;19937;-44
2020/12/21 14:13:26;;;;;;;;;;;9.70;84.30;;;;;;5009449;28;19932;-43
2020/12/21 14:15:52;;;;;;;;;;;9.70;84.20;;;;;;5010491;28;19975;-42
2020/12/21 14:18:21;;;;;;;;;;;9.70;84.40;;;;;;5007425;28;19925;-44
2020/12/21 14:20:47;;;;;;;;;;;9.70;84.60;;;;;;5008110;28;20369;-43
2020/12/21 14:23:14;;;;;;;;;;;9.70;84.70;;;;;;5008644;28;19929;-44
2020/12/21 14:25:40;;;;;;;;;;;9.70;84.70;;;;;;5008427;28;19925;-43
2020/12/21 14:28:06;;;;;;;;;;;9.70;84.80;;;;;;5004314;28;19932;-43
2020/12/21 14:30:33;;;;;;;;;;;9.70;84.90;;;;;;4996358;28;19933;-43
2020/12/21 14:32:59;;;;;;;;;;;9.60;84.80;;;;;;5008095;28;20008;-43